Pagrindinis puslapis
METAR-TAF:

METAR-TAF

Oro uostai :

Taipėjus, Taiwan

platuma: 25-05N, ilguma: 121-13E, Aukštis: 33 m

Dabartinis oras

Ataskaita buvo paskelbta 24 minutes, ne 03:30 UTC
Vėjas 22 kt iš Šiaurės Rytų
Temperatūra 19°C
Drėgmė 68%
Slėgis 1019 hPa
Matomumas 10 km arba daugiau
Mažai debesys ne aukštis 1500 ft
Su prošvaistėmis ne aukštis 3000 ft

METAR: RCTP 240330Z 04022KT 9999 FEW015 BKN030 19/13 Q1019 NOSIG RMK A3011

Laikas: 11:54 (03:54 UTC)

Prognozė

Ataskaita buvo paskelbta 4 valandos ir 54 minutes, ne 23:00 UTC
Prognozė galioja nuo 24 metu 00 UTC su 25 metu 06 UTC
Vėjas 16 kt iš Šiaurės Rytų
Matomumas 10 km arba daugiau
Mažai debesys ne aukštis 1600 ft
Su prošvaistėmis ne aukštis 3200 ft
Laikinai
nuo 24 metu 02 UTC su 24 metu 08 UTC
Vėjas 21 kt iš Šiaurės Rytų
Tapsmas
nuo 24 metu 16 UTC su 24 metu 18 UTC
Vėjas 10 kt iš Rytų/Šiaurės Rytų

TAF: RCTP 232300Z 2400/2506 05016KT 9999 FEW016 BKN032 TEMPO 2402/2408 04021KT BECMG 2416/2418 06010KT

Orai ataskaitas ir orų prognozės (METAR, TAF).

turimą stotys yra geltonos ir raudonos taškus žemėlapyje.

Perkelti pele per norėdami pamatyti stoties vardą.

Tada spustelėkite, norėdami matyti oro stebėjimo ir prognozės.

Norėdami pakeisti žemėlapį: spustelėkite ant žalios mygtukų su juodo kryžiaus žemyn,; žalią mygtuką su brūkšneliu, jei norite nutolinti; arba žalių rodyklių gretimoms žemėlapius.


METAR-TAF: